createdAt,value
2022-10-18T00:00:32.719Z,11.68
2022-10-18T00:01:31.948Z,11.61
2022-10-18T00:02:33.910Z,11.58
2022-10-18T00:03:33.206Z,11.62
2022-10-18T00:04:31.908Z,11.61
2022-10-18T00:05:33.577Z,11.50
2022-10-18T00:06:32.509Z,11.47
2022-10-18T00:07:32.121Z,11.43
2022-10-18T00:08:33.589Z,11.44
2022-10-18T00:09:32.689Z,11.44
2022-10-18T00:10:31.870Z,11.43
2022-10-18T00:11:33.607Z,11.44
2022-10-18T00:12:32.487Z,11.44
2022-10-18T00:13:31.818Z,11.46
2022-10-18T00:14:33.717Z,11.46
2022-10-18T00:15:32.948Z,11.46
2022-10-18T00:16:31.798Z,11.48
2022-10-18T00:17:34.078Z,11.53
2022-10-18T00:18:33.091Z,11.53
2022-10-18T00:19:31.768Z,11.51
2022-10-18T00:20:32.667Z,11.56
2022-10-18T00:21:32.496Z,11.56
2022-10-18T00:22:32.101Z,11.58
2022-10-18T00:23:33.131Z,11.61
2022-10-18T00:24:32.027Z,11.61
2022-10-18T00:25:31.708Z,11.61
2022-10-18T00:26:33.157Z,11.61
2022-10-18T00:27:32.350Z,11.62
2022-10-18T00:28:31.713Z,11.66
2022-10-18T00:29:33.239Z,11.74
2022-10-18T00:30:32.487Z,11.76
2022-10-18T00:31:31.652Z,11.81
2022-10-18T00:32:33.417Z,11.81
2022-10-18T00:33:33.081Z,11.83
2022-10-18T00:34:31.607Z,11.80
2022-10-18T00:35:33.169Z,11.84
2022-10-18T00:36:32.438Z,11.88
2022-10-18T00:37:31.578Z,11.88
2022-10-18T00:38:33.060Z,11.91
2022-10-18T00:39:32.607Z,11.91
2022-10-18T00:40:31.550Z,11.90
2022-10-18T00:41:33.144Z,11.86
2022-10-18T00:42:33.131Z,11.99
2022-10-18T00:43:31.518Z,12.05
2022-10-18T00:44:31.569Z,11.99
2022-10-18T00:45:32.829Z,11.83
2022-10-18T00:46:32.030Z,11.83
2022-10-18T00:47:32.198Z,11.84
2022-10-18T00:48:31.469Z,11.81
2022-10-18T00:49:33.147Z,11.65
2022-10-18T00:50:32.170Z,11.66
2022-10-18T00:51:31.427Z,11.63
2022-10-18T00:52:33.515Z,11.62
2022-10-18T00:53:32.610Z,11.50
2022-10-18T00:54:31.418Z,11.46
2022-10-18T00:55:33.317Z,11.50
2022-10-18T00:56:32.468Z,11.47
2022-10-18T00:57:32.119Z,11.54
2022-10-18T00:58:31.368Z,11.46
2022-10-18T00:59:33.450Z,11.40
2022-10-18T01:00:32.718Z,11.28
2022-10-18T01:01:31.364Z,11.23
2022-10-18T01:02:33.254Z,11.26
2022-10-18T01:03:32.510Z,11.30
2022-10-18T01:04:31.300Z,11.30
2022-10-18T01:05:32.528Z,11.29
2022-10-18T01:06:31.907Z,11.30
2022-10-18T01:07:31.545Z,11.33
2022-10-18T01:08:32.680Z,11.37
2022-10-18T01:09:32.108Z,11.38
2022-10-18T01:10:31.250Z,11.35
2022-10-18T01:11:32.619Z,11.22
2022-10-18T01:12:31.588Z,11.05
2022-10-18T01:13:31.217Z,10.92
2022-10-18T01:14:31.958Z,10.96
2022-10-18T01:15:31.178Z,10.97
2022-10-18T01:16:32.040Z,11.05
2022-10-18T01:17:31.384Z,11.03
2022-10-18T01:18:32.668Z,11.00
2022-10-18T01:19:31.888Z,11.03
2022-10-18T01:20:31.139Z,11.03
2022-10-18T01:21:32.707Z,11.04
2022-10-18T01:22:32.177Z,11.04
2022-10-18T01:23:31.100Z,11.01
2022-10-18T01:24:32.739Z,11.07
2022-10-18T01:25:31.559Z,11.10
2022-10-18T01:26:31.088Z,11.15
2022-10-18T01:27:33.018Z,11.17
2022-10-18T01:28:32.163Z,11.19
2022-10-18T01:29:31.042Z,11.19
2022-10-18T01:30:31.857Z,11.20
2022-10-18T01:31:31.023Z,11.15
2022-10-18T01:32:32.658Z,11.15
2022-10-18T01:33:32.694Z,11.20
2022-10-18T01:34:31.029Z,11.22
2022-10-18T01:35:31.799Z,11.23
2022-10-18T01:36:30.982Z,11.25
2022-10-18T01:37:32.919Z,11.23
2022-10-18T01:38:31.708Z,11.19
2022-10-18T01:39:31.849Z,11.11
2022-10-18T01:40:30.949Z,11.14
2022-10-18T01:41:32.607Z,11.15
2022-10-18T01:42:30.929Z,11.14
2022-10-18T01:43:31.826Z,11.19
2022-10-18T01:44:30.949Z,11.15
2022-10-18T01:45:32.742Z,11.15
2022-10-18T01:46:32.044Z,11.15
2022-10-18T01:47:31.164Z,11.14
2022-10-18T01:48:32.049Z,11.15
2022-10-18T01:49:31.358Z,11.15
2022-10-18T01:50:30.878Z,11.14
2022-10-18T01:51:31.561Z,11.11
2022-10-18T01:52:31.952Z,10.97
2022-10-18T01:53:31.407Z,10.89
2022-10-18T01:54:30.780Z,10.77
2022-10-18T01:55:32.569Z,10.75
2022-10-18T01:56:31.809Z,10.68
2022-10-18T01:57:30.757Z,10.65
2022-10-18T01:58:31.578Z,10.62
2022-10-18T01:59:31.459Z,10.70
2022-10-18T02:00:31.639Z,10.74
2022-10-18T02:01:30.779Z,10.71
2022-10-18T02:02:31.840Z,10.75
2022-10-18T02:03:31.408Z,10.78
2022-10-18T02:04:31.559Z,10.85
2022-10-18T02:05:31.528Z,10.89
2022-10-18T02:06:30.717Z,10.95
2022-10-18T02:07:32.229Z,10.97
2022-10-18T02:08:31.489Z,11.08
2022-10-18T02:09:30.637Z,11.15
2022-10-18T02:10:31.309Z,11.19
2022-10-18T02:11:31.518Z,11.20
2022-10-18T02:12:31.600Z,11.25
2022-10-18T02:13:30.589Z,11.25
2022-10-18T02:14:31.329Z,11.29
2022-10-18T02:15:30.567Z,11.37
2022-10-18T02:16:32.458Z,11.35
2022-10-18T02:17:31.570Z,11.33
2022-10-18T02:18:30.553Z,11.22
2022-10-18T02:19:31.380Z,11.35
2022-10-18T02:20:30.521Z,11.43
2022-10-18T02:21:32.261Z,11.51
2022-10-18T02:22:31.441Z,11.47
2022-10-18T02:23:30.507Z,11.37
2022-10-18T02:24:32.218Z,11.30
2022-10-18T02:25:31.327Z,11.28
2022-10-18T02:26:30.447Z,11.19
2022-10-18T02:27:32.122Z,11.17
2022-10-18T02:28:31.170Z,11.20
2022-10-18T02:29:30.421Z,11.20
2022-10-18T02:30:32.179Z,11.29
2022-10-18T02:31:31.010Z,11.37
2022-10-18T02:32:30.616Z,11.40
2022-10-18T02:33:32.217Z,11.47
2022-10-18T02:34:31.531Z,11.48
2022-10-18T02:35:30.379Z,11.51
2022-10-18T02:36:31.758Z,11.50
2022-10-18T02:37:31.228Z,11.47
2022-10-18T02:38:30.338Z,11.47
2022-10-18T02:39:32.788Z,11.48
2022-10-18T02:40:31.769Z,11.54
2022-10-18T02:41:30.310Z,11.58
2022-10-18T02:42:31.902Z,11.56
2022-10-18T02:43:31.170Z,11.63
2022-10-18T02:44:30.328Z,11.65
2022-10-18T02:45:31.588Z,11.68
2022-10-18T02:46:30.651Z,11.69
2022-10-18T02:47:30.509Z,11.66
2022-10-18T02:48:31.620Z,11.66
2022-10-18T02:49:31.007Z,11.71
2022-10-18T02:50:30.269Z,11.74
2022-10-18T02:51:31.611Z,11.77
2022-10-18T02:52:31.067Z,11.80
2022-10-18T02:53:30.188Z,11.79
2022-10-18T02:54:31.689Z,11.81
2022-10-18T02:55:30.777Z,11.83
2022-10-18T02:56:30.159Z,11.83
2022-10-18T02:57:31.308Z,11.79
2022-10-18T02:58:30.128Z,11.81
2022-10-18T02:59:31.588Z,11.83
2022-10-18T03:00:30.607Z,11.83
2022-10-18T03:01:30.209Z,11.87
2022-10-18T03:02:30.938Z,11.88
2022-10-18T03:03:30.089Z,11.88
2022-10-18T03:04:31.594Z,11.96
2022-10-18T03:05:31.538Z,11.96
2022-10-18T03:06:30.128Z,11.97
2022-10-18T03:07:32.461Z,12.00
2022-10-18T03:08:31.999Z,12.02
2022-10-18T03:09:30.027Z,12.05
2022-10-18T03:10:29.998Z,12.03
2022-10-18T03:11:31.700Z,12.05
2022-10-18T03:12:31.079Z,12.05
2022-10-18T03:14:30.698Z,12.06
2022-10-18T03:15:30.809Z,12.06
2022-10-18T03:16:30.027Z,12.06
2022-10-18T03:17:31.931Z,12.05
2022-10-18T03:18:31.168Z,12.00
2022-10-18T03:19:29.908Z,12.02
2022-10-18T03:20:32.219Z,11.99
2022-10-18T03:21:31.469Z,11.96
2022-10-18T03:22:29.958Z,11.97
2022-10-18T03:23:31.657Z,11.96
2022-10-18T03:24:31.129Z,11.91
2022-10-18T03:25:29.849Z,11.87
2022-10-18T03:26:29.848Z,11.84
2022-10-18T03:27:32.146Z,11.83
2022-10-18T03:28:31.406Z,11.83
2022-10-18T03:29:29.837Z,11.84
2022-10-18T03:30:30.619Z,11.86
2022-10-18T03:32:30.950Z,11.95
2022-10-18T03:33:29.780Z,12.00
2022-10-18T03:34:31.269Z,11.95
2022-10-18T03:35:31.008Z,11.96
2022-10-18T03:36:30.589Z,12.00
2022-10-18T03:37:30.528Z,12.03
2022-10-18T03:38:29.730Z,12.14
2022-10-18T03:39:31.128Z,12.15
2022-10-18T03:41:29.679Z,12.21
2022-10-18T03:42:31.485Z,12.18
2022-10-18T03:43:31.087Z,12.24
2022-10-18T03:44:30.539Z,12.25
2022-10-18T03:45:31.356Z,12.22
2022-10-18T03:46:29.650Z,12.22
2022-10-18T03:47:31.147Z,12.22
2022-10-18T03:48:30.488Z,12.24
2022-10-18T03:49:29.654Z,12.28
2022-10-18T03:50:31.220Z,12.30
2022-10-18T03:51:30.168Z,12.22
2022-10-18T03:52:29.968Z,12.09
2022-10-18T03:53:31.032Z,12.09
2022-10-18T03:54:30.458Z,12.10
2022-10-18T03:55:30.180Z,12.15
2022-10-18T03:56:29.529Z,12.14
2022-10-18T03:57:31.135Z,12.18
2022-10-18T03:58:31.768Z,12.21
2022-10-18T03:59:29.560Z,12.30
2022-10-18T04:00:29.500Z,12.32
2022-10-18T04:01:29.551Z,12.38
2022-10-18T04:02:29.775Z,12.40
2022-10-18T04:03:30.389Z,12.33
2022-10-18T04:04:29.770Z,12.24
2022-10-18T04:05:30.320Z,12.30
2022-10-18T04:06:29.428Z,12.38
2022-10-18T04:07:31.039Z,12.40
2022-10-18T04:08:30.527Z,12.45
2022-10-18T04:09:29.557Z,12.43
2022-10-18T04:10:31.129Z,12.47
2022-10-18T04:11:30.179Z,12.54
2022-10-18T04:12:30.373Z,12.58
2022-10-18T04:13:30.360Z,12.64
2022-10-18T04:14:30.049Z,12.54
2022-10-18T04:15:30.270Z,12.43
2022-10-18T04:16:30.473Z,12.47
2022-10-18T04:17:29.507Z,12.38
2022-10-18T04:18:31.258Z,12.27
2022-10-18T04:19:30.129Z,12.18
2022-10-18T04:20:30.288Z,12.06
2022-10-18T04:21:29.329Z,12.14
2022-10-18T04:22:30.040Z,12.14
2022-10-18T04:23:29.251Z,12.06
2022-10-18T04:24:30.587Z,12.05
2022-10-18T04:25:31.135Z,12.09
2022-10-18T04:26:31.170Z,12.10
2022-10-18T04:27:31.109Z,12.15
2022-10-18T04:28:30.056Z,12.22
2022-10-18T04:29:29.888Z,12.27
2022-10-18T04:30:29.978Z,12.30
2022-10-18T04:31:29.241Z,12.20
2022-10-18T04:32:30.548Z,12.18
2022-10-18T04:33:29.898Z,12.13
2022-10-18T04:34:29.997Z,12.17
2022-10-18T04:35:29.151Z,12.24
2022-10-18T04:36:30.608Z,12.32
2022-10-18T04:37:30.103Z,12.36
2022-10-18T04:38:29.969Z,12.36
2022-10-18T04:39:29.867Z,12.42
2022-10-18T04:40:29.079Z,12.42
2022-10-18T04:41:29.937Z,12.45
2022-10-18T04:42:29.102Z,12.42
2022-10-18T04:43:31.041Z,12.25
2022-10-18T04:44:29.878Z,12.15
2022-10-18T04:45:29.018Z,12.05
2022-10-18T04:46:30.689Z,12.05
2022-10-18T04:47:30.576Z,11.96
2022-10-18T04:48:29.025Z,12.07
2022-10-18T04:49:28.983Z,12.07
2022-10-18T04:50:30.649Z,11.97
2022-10-18T04:51:30.050Z,11.99
2022-10-18T04:52:29.009Z,11.87
2022-10-18T04:53:30.668Z,11.79
2022-10-18T04:54:29.838Z,11.71
2022-10-18T04:55:28.948Z,11.65
2022-10-18T04:56:30.558Z,11.59
2022-10-18T04:57:30.274Z,11.50
2022-10-18T04:58:28.918Z,11.44
2022-10-18T04:59:30.298Z,11.43
2022-10-18T05:00:29.440Z,11.46
2022-10-18T05:01:28.907Z,11.35
2022-10-18T05:02:30.564Z,11.35
2022-10-18T05:03:30.348Z,11.26
2022-10-18T05:04:28.829Z,11.33
2022-10-18T05:05:49.940Z,11.37
2022-10-18T05:06:28.828Z,11.41
2022-10-18T05:07:30.908Z,11.32
2022-10-18T05:08:30.120Z,11.28
2022-10-18T05:09:28.840Z,11.20
2022-10-18T05:10:29.739Z,11.17
2022-10-18T05:11:28.770Z,11.22
2022-10-18T05:12:30.585Z,11.20
2022-10-18T05:13:30.089Z,11.15
2022-10-18T05:14:28.738Z,11.20
2022-10-18T05:15:30.069Z,11.23
2022-10-18T05:16:30.589Z,11.14
2022-10-18T05:17:28.687Z,11.11
2022-10-18T05:18:30.141Z,11.05
2022-10-18T05:19:29.319Z,11.07
2022-10-18T05:20:28.708Z,11.15
2022-10-18T05:21:30.208Z,11.12
2022-10-18T05:22:30.209Z,11.14
2022-10-18T05:23:28.650Z,11.10
2022-10-18T05:24:30.069Z,11.19
2022-10-18T05:25:29.077Z,11.28
2022-10-18T05:26:28.600Z,11.20
2022-10-18T05:27:30.169Z,11.19
2022-10-18T05:28:44.632Z,11.11
2022-10-18T05:29:30.361Z,11.12
2022-10-18T05:30:29.410Z,11.14
2022-10-18T05:31:28.618Z,11.08
2022-10-18T05:32:30.441Z,11.08
2022-10-18T05:33:30.077Z,11.10
2022-10-18T05:34:28.550Z,11.11
2022-10-18T05:35:28.513Z,11.14
2022-10-18T05:36:30.318Z,11.19
2022-10-18T05:37:29.358Z,11.28
2022-10-18T05:38:29.779Z,11.33
2022-10-18T05:39:28.488Z,11.40
2022-10-18T05:40:29.749Z,11.41
2022-10-18T05:41:28.741Z,11.40
2022-10-18T05:42:29.275Z,11.38
2022-10-18T05:43:28.430Z,11.37
2022-10-18T05:44:30.697Z,11.46
2022-10-18T05:45:29.400Z,11.47
2022-10-18T05:46:28.940Z,11.33
2022-10-18T05:47:29.724Z,11.35
2022-10-18T05:48:29.430Z,11.32
2022-10-18T05:49:28.363Z,11.32
2022-10-18T05:50:29.048Z,11.25
2022-10-18T05:51:28.408Z,11.20
2022-10-18T05:52:29.825Z,11.28
2022-10-18T05:53:36.580Z,11.38
2022-10-18T05:54:30.098Z,11.33
2022-10-18T05:55:29.148Z,11.28
2022-10-18T05:56:28.359Z,11.22
2022-10-18T05:57:29.915Z,11.17
2022-10-18T05:58:29.258Z,11.11
2022-10-18T05:59:28.269Z,11.19
2022-10-18T06:00:29.958Z,11.22
2022-10-18T06:01:29.568Z,11.25
2022-10-18T06:02:29.205Z,11.29
2022-10-18T06:03:28.340Z,11.30
2022-10-18T06:04:29.071Z,11.40
2022-10-18T06:05:28.238Z,11.43
2022-10-18T06:06:29.056Z,11.47
2022-10-18T06:07:28.228Z,11.46
2022-10-18T06:08:29.774Z,11.50
2022-10-18T06:09:28.699Z,11.50
2022-10-18T06:10:28.208Z,11.51
2022-10-18T06:11:29.618Z,11.48
2022-10-18T06:12:29.148Z,11.59
2022-10-18T06:13:31.182Z,11.61
2022-10-18T06:14:28.108Z,11.66
2022-10-18T06:15:29.675Z,11.76
2022-10-18T06:16:32.405Z,11.74
2022-10-18T06:17:31.670Z,11.71
2022-10-18T06:18:28.118Z,11.72
2022-10-18T06:19:28.060Z,11.74
2022-10-18T06:20:29.913Z,11.79
2022-10-18T06:21:28.727Z,11.81
2022-10-18T06:22:28.058Z,11.86
2022-10-18T06:23:29.650Z,11.88
2022-10-18T06:24:28.960Z,11.90
2022-10-18T06:25:28.119Z,11.86
2022-10-18T06:26:29.970Z,11.87
2022-10-18T06:27:28.889Z,11.96
2022-10-18T06:28:28.116Z,11.96
2022-10-18T06:29:28.798Z,11.97
2022-10-18T06:30:27.961Z,11.88
2022-10-18T06:31:29.879Z,11.79
2022-10-18T06:32:28.758Z,11.76
2022-10-18T06:33:27.959Z,11.83
2022-10-18T06:34:29.219Z,11.90
2022-10-18T06:35:28.380Z,11.86
2022-10-18T06:36:27.888Z,11.81
2022-10-18T06:37:29.556Z,11.69
2022-10-18T06:38:29.820Z,11.76
2022-10-18T06:39:27.869Z,11.74
2022-10-18T06:40:27.888Z,11.86
2022-10-18T06:41:29.198Z,11.90
2022-10-18T06:42:28.541Z,11.90
2022-10-18T06:43:27.869Z,11.91
2022-10-18T06:44:29.767Z,11.99
2022-10-18T06:45:28.749Z,12.09
2022-10-18T06:46:27.796Z,12.14
2022-10-18T06:47:29.229Z,12.20
2022-10-18T06:48:28.501Z,12.20
2022-10-18T06:49:27.762Z,12.22
2022-10-18T06:50:29.300Z,12.28
2022-10-18T06:51:28.129Z,12.27
2022-10-18T06:52:27.730Z,12.35
2022-10-18T06:53:28.539Z,12.46
2022-10-18T06:54:27.730Z,12.54
2022-10-18T06:55:29.257Z,12.47
2022-10-18T06:56:28.248Z,12.35
2022-10-18T06:57:27.679Z,12.27
2022-10-18T06:58:29.158Z,12.33
2022-10-18T06:59:31.137Z,12.32
2022-10-18T07:00:27.628Z,12.36
2022-10-18T07:01:29.295Z,12.33
2022-10-18T07:02:29.499Z,12.24
2022-10-18T07:03:27.609Z,12.21
2022-10-18T07:04:29.218Z,12.21
2022-10-18T07:05:28.418Z,12.18
2022-10-18T07:06:27.590Z,12.14
2022-10-18T07:07:29.113Z,12.17
2022-10-18T07:08:27.559Z,12.17
2022-10-18T07:09:29.238Z,12.28
2022-10-18T07:10:28.199Z,12.38
2022-10-18T07:11:27.549Z,12.45
2022-10-18T07:12:28.431Z,12.53
2022-10-18T07:13:32.541Z,12.61
2022-10-18T07:14:29.145Z,12.64
2022-10-18T07:15:27.638Z,12.73
2022-10-18T07:16:29.215Z,12.75
2022-10-18T07:17:28.131Z,12.83
2022-10-18T07:18:27.452Z,12.79
2022-10-18T07:19:29.631Z,12.76
2022-10-18T07:20:28.829Z,12.73
2022-10-18T07:21:27.430Z,12.78
2022-10-18T07:22:30.348Z,12.82
2022-10-18T07:23:28.529Z,12.75
2022-10-18T07:24:28.154Z,12.83
2022-10-18T07:25:29.885Z,12.88
2022-10-18T07:26:28.993Z,12.97
2022-10-18T07:27:27.389Z,13.03
2022-10-18T07:28:29.575Z,13.11
2022-10-18T07:29:28.359Z,12.97
2022-10-18T07:30:27.989Z,12.90
2022-10-18T07:31:29.328Z,12.94
2022-10-18T07:32:29.553Z,13.01
2022-10-18T07:33:29.548Z,12.96
2022-10-18T07:34:28.920Z,12.87
2022-10-18T07:35:27.280Z,12.75
2022-10-18T07:36:27.342Z,12.68
2022-10-18T07:37:30.143Z,12.64
2022-10-18T07:38:27.258Z,12.63
2022-10-18T07:39:27.978Z,12.63
2022-10-18T07:40:27.222Z,12.68
2022-10-18T07:41:29.274Z,12.80
2022-10-18T07:42:28.600Z,12.80
2022-10-18T07:43:27.509Z,12.65
2022-10-18T07:44:28.678Z,12.65
2022-10-18T07:45:28.027Z,12.80
2022-10-18T07:46:27.239Z,12.88
2022-10-18T07:47:30.086Z,12.83
2022-10-18T07:48:27.222Z,12.87
2022-10-18T07:49:27.961Z,12.91
2022-10-18T07:50:27.148Z,12.85
2022-10-18T07:51:28.738Z,12.90
2022-10-18T07:52:27.785Z,12.87
2022-10-18T07:53:27.740Z,12.85
2022-10-18T07:54:29.298Z,12.90
2022-10-18T07:55:28.287Z,12.79
2022-10-18T07:56:27.120Z,12.69
2022-10-18T07:57:28.858Z,12.78
2022-10-18T07:58:27.837Z,12.80
2022-10-18T07:59:27.029Z,12.94
2022-10-18T08:00:28.650Z,12.94
2022-10-18T08:01:27.864Z,12.96
2022-10-18T08:02:27.048Z,12.98
2022-10-18T08:03:28.931Z,13.11
2022-10-18T08:04:27.887Z,13.12
2022-10-18T08:05:27.386Z,13.24
2022-10-18T08:06:28.679Z,13.19
2022-10-18T08:07:27.797Z,13.19
2022-10-18T08:08:26.939Z,13.29
2022-10-18T08:09:28.117Z,13.38
2022-10-18T08:10:27.348Z,13.45
2022-10-18T08:11:27.622Z,13.31
2022-10-18T08:12:26.898Z,13.29
2022-10-18T08:13:27.737Z,13.21
2022-10-18T08:14:26.870Z,13.26
2022-10-18T08:15:27.688Z,13.35
2022-10-18T08:16:26.899Z,13.49
2022-10-18T08:17:28.375Z,13.41
2022-10-18T08:18:27.629Z,13.43
2022-10-18T08:19:27.708Z,13.39
2022-10-18T08:20:30.756Z,13.41
2022-10-18T08:21:26.822Z,13.41
2022-10-18T08:22:26.801Z,13.45
2022-10-18T08:23:28.188Z,13.35
2022-10-18T08:24:26.888Z,13.35
2022-10-18T08:25:26.838Z,13.22
2022-10-18T08:26:28.109Z,13.11
2022-10-18T08:27:27.579Z,13.01
2022-10-18T08:28:27.635Z,13.00
2022-10-18T08:29:29.228Z,12.85
2022-10-18T08:30:27.488Z,12.75
2022-10-18T08:31:26.697Z,12.83
2022-10-18T08:32:28.231Z,12.87
2022-10-18T08:33:27.279Z,12.88
2022-10-18T08:34:26.772Z,12.88
2022-10-18T08:35:27.528Z,12.93
2022-10-18T08:36:28.510Z,12.96
2022-10-18T08:37:28.297Z,12.94
2022-10-18T08:38:26.627Z,12.91
2022-10-18T08:39:28.228Z,12.96
2022-10-18T08:40:27.728Z,13.05
2022-10-18T08:41:26.588Z,13.00
2022-10-18T08:42:27.389Z,12.96
2022-10-18T08:43:27.406Z,13.00
2022-10-18T08:44:26.580Z,13.09
2022-10-18T08:45:41.961Z,13.13
2022-10-18T08:46:27.740Z,13.11
2022-10-18T08:47:27.358Z,13.12
2022-10-18T08:48:26.547Z,13.16
2022-10-18T08:49:27.358Z,13.16
2022-10-18T08:50:27.430Z,13.19
2022-10-18T08:51:26.558Z,13.13
2022-10-18T08:52:28.181Z,13.27
2022-10-18T08:53:27.273Z,13.13
2022-10-18T08:54:26.499Z,12.91
2022-10-18T08:55:28.742Z,12.88
2022-10-18T08:56:27.589Z,12.91
2022-10-18T08:57:27.222Z,12.93
2022-10-18T08:58:27.097Z,12.97
2022-10-18T08:59:27.209Z,12.97
2022-10-18T09:00:26.410Z,12.93
2022-10-18T09:01:27.318Z,12.97
2022-10-18T09:02:26.398Z,12.90
2022-10-18T09:03:26.436Z,12.97
2022-10-18T09:04:27.790Z,13.00
2022-10-18T09:05:26.369Z,13.15
2022-10-18T09:06:27.729Z,13.22
2022-10-18T09:07:26.608Z,13.35
2022-10-18T09:08:26.340Z,13.47
2022-10-18T09:09:27.760Z,13.57
2022-10-18T09:10:26.618Z,13.56
2022-10-18T09:11:26.953Z,13.47
2022-10-18T09:12:26.358Z,13.30
2022-10-18T09:13:27.630Z,13.24
2022-10-18T09:14:26.551Z,13.33
2022-10-18T09:15:27.109Z,13.47
2022-10-18T09:16:27.029Z,13.65
2022-10-18T09:17:26.969Z,13.67
2022-10-18T09:18:26.298Z,13.38
2022-10-18T09:19:26.999Z,13.27
2022-10-18T09:20:26.799Z,13.12
2022-10-18T09:21:27.048Z,12.90
2022-10-18T09:22:26.787Z,12.79
2022-10-18T09:23:26.252Z,12.85
2022-10-18T09:24:27.798Z,13.08
2022-10-18T09:25:26.777Z,13.27
2022-10-18T09:26:26.777Z,13.30
2022-10-18T09:27:26.928Z,13.35
2022-10-18T09:28:27.185Z,13.47
2022-10-18T09:29:26.941Z,13.53
2022-10-18T09:30:26.119Z,13.49
2022-10-18T09:31:27.638Z,13.53
2022-10-18T09:32:26.980Z,13.67
2022-10-18T09:33:26.087Z,13.82
2022-10-18T09:34:26.860Z,13.86
2022-10-18T09:35:26.888Z,13.93
2022-10-18T09:36:26.838Z,14.03
2022-10-18T09:37:26.039Z,14.10
2022-10-18T09:38:27.918Z,14.05
2022-10-18T09:39:26.718Z,14.04
2022-10-18T09:40:26.807Z,14.14
2022-10-18T09:41:25.979Z,13.95
2022-10-18T09:42:27.971Z,13.78
2022-10-18T09:43:26.676Z,13.74
2022-10-18T09:44:26.030Z,13.78
2022-10-18T09:45:26.637Z,13.83
2022-10-18T09:46:26.779Z,13.93
2022-10-18T09:47:26.697Z,14.01
2022-10-18T09:48:25.927Z,13.93
2022-10-18T09:49:27.188Z,14.04
2022-10-18T09:50:26.788Z,14.20
2022-10-18T09:51:26.718Z,14.15
2022-10-18T09:52:25.907Z,14.19
2022-10-18T09:53:26.629Z,14.25
2022-10-18T09:54:26.449Z,14.38
2022-10-18T09:55:26.676Z,14.43
2022-10-18T09:56:26.607Z,14.56
2022-10-18T09:57:26.607Z,14.48
2022-10-18T09:58:26.390Z,14.53
2022-10-18T09:59:26.619Z,14.53
2022-10-18T10:00:25.780Z,14.43
2022-10-18T10:01:26.609Z,14.25
2022-10-18T10:02:25.843Z,14.14
2022-10-18T10:03:27.188Z,14.22
2022-10-18T10:04:25.961Z,14.20
2022-10-18T10:05:25.739Z,14.29
2022-10-18T10:06:27.237Z,14.47
2022-10-18T10:07:27.719Z,14.66
2022-10-18T10:08:26.988Z,14.84
2022-10-18T10:09:25.710Z,14.82
2022-10-18T10:10:27.177Z,14.93
2022-10-18T10:11:26.057Z,15.12
2022-10-18T10:12:25.688Z,15.18
2022-10-18T10:13:26.357Z,14.88
2022-10-18T10:14:25.848Z,14.91
2022-10-18T10:15:31.283Z,14.85
2022-10-18T10:16:27.008Z,14.79
2022-10-18T10:17:25.619Z,14.91
2022-10-18T10:18:27.219Z,14.81
2022-10-18T10:19:26.008Z,14.48
2022-10-18T10:20:25.640Z,14.15
2022-10-18T10:21:27.217Z,14.07
2022-10-18T10:22:26.288Z,14.30
2022-10-18T10:23:25.587Z,14.25
2022-10-18T10:24:30.319Z,14.32
2022-10-18T10:25:26.350Z,14.51
2022-10-18T10:26:26.140Z,14.63
2022-10-18T10:27:27.378Z,14.62
2022-10-18T10:28:26.545Z,14.63
2022-10-18T10:29:43.604Z,14.50
2022-10-18T10:30:26.300Z,14.38
2022-10-18T10:31:26.600Z,14.33
2022-10-18T10:33:25.480Z,14.25
2022-10-18T10:34:26.270Z,14.23
2022-10-18T10:35:41.552Z,14.20
2022-10-18T10:36:26.459Z,14.43
2022-10-18T10:37:25.398Z,14.38
2022-10-18T10:38:26.660Z,14.73
2022-10-18T10:39:25.988Z,14.47
2022-10-18T10:40:28.516Z,14.58
2022-10-18T10:41:26.187Z,14.82
2022-10-18T10:42:26.258Z,15.03
2022-10-18T10:43:37.060Z,14.77
2022-10-18T10:44:26.150Z,14.40
2022-10-18T10:45:26.020Z,14.58
2022-10-18T10:46:26.140Z,14.78
2022-10-18T10:47:25.289Z,14.91
2022-10-18T10:48:29.924Z,15.02
2022-10-18T10:49:41.618Z,15.09
2022-10-18T10:50:26.292Z,15.11
2022-10-18T10:51:25.968Z,15.07
2022-10-18T10:52:27.640Z,15.09
2022-10-18T10:53:26.997Z,15.12
2022-10-18T10:54:25.238Z,15.17
2022-10-18T10:55:34.824Z,15.24
2022-10-18T10:56:26.791Z,15.30
2022-10-18T10:57:25.998Z,15.21
2022-10-18T10:58:26.042Z,15.32
2022-10-18T10:59:26.009Z,15.51
2022-10-18T11:00:25.172Z,15.58
2022-10-18T11:01:25.978Z,15.27
2022-10-18T11:02:25.157Z,15.09
2022-10-18T11:03:30.008Z,14.88
2022-10-18T11:04:25.971Z,14.65
2022-10-18T11:05:25.456Z,14.58
2022-10-18T11:06:26.928Z,14.74
2022-10-18T11:07:26.011Z,14.69
2022-10-18T11:08:25.120Z,14.63
2022-10-18T11:09:25.114Z,14.48
2022-10-18T11:10:25.069Z,14.41
2022-10-18T11:11:26.437Z,14.48
2022-10-18T11:12:25.871Z,14.55
2022-10-18T11:13:25.698Z,14.58
2022-10-18T11:14:27.136Z,14.59
2022-10-18T11:15:26.419Z,14.47
2022-10-18T11:16:25.908Z,14.61
2022-10-18T11:17:25.849Z,14.82
2022-10-18T11:18:25.869Z,14.81
2022-10-18T11:19:27.761Z,14.88
2022-10-18T11:20:25.849Z,15.02
2022-10-18T11:21:24.990Z,15.00
2022-10-18T11:22:26.219Z,15.00
2022-10-18T11:23:25.171Z,14.96
2022-10-18T11:24:24.927Z,15.04
2022-10-18T11:25:25.948Z,14.99
2022-10-18T11:26:25.523Z,15.12
2022-10-18T11:27:25.198Z,15.30
2022-10-18T11:28:25.516Z,15.28
2022-10-18T11:29:24.878Z,15.12
2022-10-18T11:30:25.679Z,14.96
2022-10-18T11:31:26.275Z,15.11
2022-10-18T11:32:25.517Z,15.21
2022-10-18T11:33:38.283Z,15.19
2022-10-18T11:34:26.148Z,15.25
2022-10-18T11:35:25.098Z,15.07
2022-10-18T11:36:25.670Z,15.02
2022-10-18T11:37:30.310Z,15.18
2022-10-18T11:38:26.108Z,15.27
2022-10-18T11:39:24.778Z,15.33
2022-10-18T11:40:25.541Z,15.39
2022-10-18T11:41:25.317Z,15.33
2022-10-18T11:42:24.748Z,15.37
2022-10-18T11:43:30.340Z,15.61
2022-10-18T11:44:26.129Z,15.65
2022-10-18T11:45:24.752Z,15.65
2022-10-18T11:46:26.128Z,15.62
2022-10-18T11:47:26.378Z,15.60
2022-10-18T11:48:26.428Z,15.70
2022-10-18T11:49:25.396Z,15.97
2022-10-18T11:50:24.657Z,16.06
2022-10-18T11:51:34.159Z,15.62
2022-10-18T11:52:26.722Z,15.40
2022-10-18T11:53:24.961Z,15.42
2022-10-18T11:54:25.545Z,15.43
2022-10-18T11:55:28.969Z,15.36
2022-10-18T11:56:25.521Z,15.60
2022-10-18T11:57:25.683Z,15.75
2022-10-18T11:58:25.523Z,15.85
2022-10-18T11:59:25.962Z,15.83
2022-10-18T12:00:24.945Z,15.79
2022-10-18T12:01:28.438Z,15.65
2022-10-18T12:02:25.771Z,15.54
2022-10-18T12:03:25.702Z,15.68
2022-10-18T12:04:26.181Z,15.64
2022-10-18T12:05:25.782Z,15.36
2022-10-18T12:06:24.801Z,15.37
2022-10-18T12:07:30.242Z,15.35
2022-10-18T12:08:26.020Z,15.32
2022-10-18T12:09:25.601Z,15.54
2022-10-18T12:10:37.903Z,15.76
2022-10-18T12:11:26.482Z,15.79
2022-10-18T12:12:25.523Z,15.76
2022-10-18T12:13:26.483Z,15.77
2022-10-18T12:14:25.641Z,15.61
2022-10-18T12:15:24.664Z,15.68
2022-10-18T12:16:49.552Z,15.65
2022-10-18T12:17:43.991Z,15.88
2022-10-18T12:18:24.685Z,16.02
2022-10-18T12:19:27.306Z,16.13
2022-10-18T12:20:26.582Z,16.24
2022-10-18T12:21:25.834Z,16.35
2022-10-18T12:22:25.463Z,16.36
2022-10-18T12:23:24.628Z,16.13
2022-10-18T12:24:24.601Z,15.98
2022-10-18T12:25:26.243Z,16.02
2022-10-18T12:26:25.961Z,15.94
2022-10-18T12:27:25.502Z,16.09
2022-10-18T12:28:24.688Z,15.94
2022-10-18T12:29:25.461Z,15.68
2022-10-18T12:30:24.561Z,15.94
2022-10-18T12:31:25.481Z,16.00
2022-10-18T12:32:25.300Z,15.90
2022-10-18T12:33:29.103Z,15.85
2022-10-18T12:34:26.302Z,15.73
2022-10-18T12:35:25.941Z,15.64
2022-10-18T12:36:25.181Z,15.55
2022-10-18T12:37:24.440Z,15.51
2022-10-18T12:38:25.301Z,15.70
2022-10-18T12:39:33.309Z,15.83
2022-10-18T12:40:25.302Z,15.97
2022-10-18T12:41:25.461Z,16.16
2022-10-18T12:42:26.141Z,16.39
2022-10-18T12:43:25.161Z,16.56
2022-10-18T12:44:25.341Z,16.43
2022-10-18T12:45:27.552Z,16.46
2022-10-18T12:46:25.951Z,16.44
2022-10-18T12:47:25.481Z,16.24
2022-10-18T12:48:25.341Z,16.05
2022-10-18T12:49:24.343Z,15.91
2022-10-18T12:50:24.302Z,15.83
2022-10-18T12:51:25.079Z,15.70
2022-10-18T12:52:24.301Z,15.68
2022-10-18T12:53:26.381Z,15.73
2022-10-18T12:54:24.261Z,15.80
2022-10-18T12:55:25.083Z,15.79
2022-10-18T12:56:25.925Z,15.68